sensor_id;sensor_type;location;lat;lon;timestamp;pressure;altitude;pressure_sealevel;temperature;humidity
39949;BME280;29070;48.102;-1.652;2023-05-01T00:01:45;101773.03;;;13.98;70.06
39949;BME280;29070;48.102;-1.652;2023-05-01T00:06:46;101762.44;;;13.91;70.27
39949;BME280;29070;48.102;-1.652;2023-05-01T00:11:46;101765.28;;;13.90;70.17
39949;BME280;29070;48.102;-1.652;2023-05-01T00:16:46;101747.59;;;13.90;70.29
39949;BME280;29070;48.102;-1.652;2023-05-01T00:21:47;101737.59;;;13.86;70.36
39949;BME280;29070;48.102;-1.652;2023-05-01T00:26:48;101732.97;;;13.88;70.44
39949;BME280;29070;48.102;-1.652;2023-05-01T00:31:48;101730.97;;;13.90;70.58
39949;BME280;29070;48.102;-1.652;2023-05-01T00:36:48;101726.44;;;13.84;70.80
39949;BME280;29070;48.102;-1.652;2023-05-01T00:41:49;101729.91;;;13.84;70.69
39949;BME280;29070;48.102;-1.652;2023-05-01T00:46:49;101715.44;;;13.80;70.58
39949;BME280;29070;48.102;-1.652;2023-05-01T00:51:50;101706.53;;;13.81;70.87
39949;BME280;29070;48.102;-1.652;2023-05-01T00:56:52;101714.06;;;13.84;71.18
39949;BME280;29070;48.102;-1.652;2023-05-01T01:01:53;101711.00;;;13.81;71.06
39949;BME280;29070;48.102;-1.652;2023-05-01T01:07:02;101701.19;;;13.75;71.40
39949;BME280;29070;48.102;-1.652;2023-05-01T01:17:23;101704.38;;;13.63;71.62
39949;BME280;29070;48.102;-1.652;2023-05-01T01:22:27;101694.19;;;13.60;71.67
39949;BME280;29070;48.102;-1.652;2023-05-01T01:38:45;101683.25;;;13.63;72.08
39949;BME280;29070;48.102;-1.652;2023-05-01T01:43:54;101681.25;;;13.65;72.05
39949;BME280;29070;48.102;-1.652;2023-05-01T01:48:58;101682.13;;;13.72;72.05
39949;BME280;29070;48.102;-1.652;2023-05-01T01:53:59;101680.72;;;13.77;72.08
39949;BME280;29070;48.102;-1.652;2023-05-01T01:59:03;101670.94;;;13.70;72.15
39949;BME280;29070;48.102;-1.652;2023-05-01T02:04:05;101674.38;;;13.71;72.12
39949;BME280;29070;48.102;-1.652;2023-05-01T02:09:08;101664.19;;;13.61;72.25
39949;BME280;29070;48.102;-1.652;2023-05-01T02:14:10;101667.81;;;13.60;72.53
39949;BME280;29070;48.102;-1.652;2023-05-01T02:19:13;101659.09;;;13.60;72.49
39949;BME280;29070;48.102;-1.652;2023-05-01T02:24:14;101659.66;;;13.55;72.61
39949;BME280;29070;48.102;-1.652;2023-05-01T02:29:14;101674.72;;;13.61;72.70
39949;BME280;29070;48.102;-1.652;2023-05-01T02:34:15;101662.34;;;13.62;72.71
39949;BME280;29070;48.102;-1.652;2023-05-01T02:39:15;101662.47;;;13.53;72.91
39949;BME280;29070;48.102;-1.652;2023-05-01T02:44:17;101655.16;;;13.49;73.13
39949;BME280;29070;48.102;-1.652;2023-05-01T02:49:19;101653.13;;;13.51;73.14
39949;BME280;29070;48.102;-1.652;2023-05-01T02:54:20;101651.38;;;13.58;73.18
39949;BME280;29070;48.102;-1.652;2023-05-01T02:59:21;101663.53;;;13.59;73.21
39949;BME280;29070;48.102;-1.652;2023-05-01T03:04:21;101662.47;;;13.53;73.38
39949;BME280;29070;48.102;-1.652;2023-05-01T03:09:22;101662.28;;;13.55;73.45
39949;BME280;29070;48.102;-1.652;2023-05-01T03:14:22;101659.75;;;13.40;73.54
39949;BME280;29070;48.102;-1.652;2023-05-01T03:19:23;101655.53;;;13.46;73.53
39949;BME280;29070;48.102;-1.652;2023-05-01T03:24:23;101656.94;;;13.42;73.80
39949;BME280;29070;48.102;-1.652;2023-05-01T03:29:23;101648.81;;;13.43;73.61
39949;BME280;29070;48.102;-1.652;2023-05-01T03:34:24;101649.25;;;13.47;73.76
39949;BME280;29070;48.102;-1.652;2023-05-01T03:39:24;101659.16;;;13.45;74.04
39949;BME280;29070;48.102;-1.652;2023-05-01T03:44:25;101662.03;;;13.50;74.04
39949;BME280;29070;48.102;-1.652;2023-05-01T03:49:25;101663.06;;;13.49;73.92
39949;BME280;29070;48.102;-1.652;2023-05-01T03:54:25;101647.38;;;13.41;73.85
39949;BME280;29070;48.102;-1.652;2023-05-01T03:59:26;101653.22;;;13.36;74.03
39949;BME280;29070;48.102;-1.652;2023-05-01T04:04:26;101660.94;;;13.38;73.99
39949;BME280;29070;48.102;-1.652;2023-05-01T04:09:28;101659.31;;;13.37;73.90
39949;BME280;29070;48.102;-1.652;2023-05-01T04:14:31;101664.69;;;13.28;74.07
39949;BME280;29070;48.102;-1.652;2023-05-01T04:19:31;101663.06;;;13.27;74.06
39949;BME280;29070;48.102;-1.652;2023-05-01T04:24:33;101668.41;;;13.34;74.20
39949;BME280;29070;48.102;-1.652;2023-05-01T04:29:35;101665.50;;;13.29;74.11
39949;BME280;29070;48.102;-1.652;2023-05-01T04:34:35;101667.91;;;13.24;74.32
39949;BME280;29070;48.102;-1.652;2023-05-01T04:39:36;101684.53;;;13.24;74.20
39949;BME280;29070;48.102;-1.652;2023-05-01T04:44:36;101682.13;;;13.29;74.21
39949;BME280;29070;48.102;-1.652;2023-05-01T04:49:37;101676.06;;;13.29;74.24
39949;BME280;29070;48.102;-1.652;2023-05-01T04:54:37;101678.47;;;13.30;74.27
39949;BME280;29070;48.102;-1.652;2023-05-01T04:59:37;101688.69;;;13.33;74.24
39949;BME280;29070;48.102;-1.652;2023-05-01T05:04:38;101672.88;;;13.33;74.28
39949;BME280;29070;48.102;-1.652;2023-05-01T05:09:38;101682.69;;;13.40;74.30
39949;BME280;29070;48.102;-1.652;2023-05-01T05:14:40;101688.56;;;13.42;74.47
39949;BME280;29070;48.102;-1.652;2023-05-01T05:19:40;101691.31;;;13.33;74.63
39949;BME280;29070;48.102;-1.652;2023-05-01T05:24:40;101695.16;;;13.31;74.40
39949;BME280;29070;48.102;-1.652;2023-05-01T05:29:41;101696.22;;;13.37;74.40
39949;BME280;29070;48.102;-1.652;2023-05-01T05:34:41;101694.22;;;13.39;74.37
39949;BME280;29070;48.102;-1.652;2023-05-01T05:39:41;101706.19;;;13.41;74.08
39949;BME280;29070;48.102;-1.652;2023-05-01T05:44:42;101709.59;;;13.35;74.06
39949;BME280;29070;48.102;-1.652;2023-05-01T05:49:42;101712.75;;;13.30;74.13
39949;BME280;29070;48.102;-1.652;2023-05-01T05:54:42;101725.59;;;13.33;74.31
39949;BME280;29070;48.102;-1.652;2023-05-01T05:59:43;101717.31;;;13.37;74.22
39949;BME280;29070;48.102;-1.652;2023-05-01T06:04:44;101730.59;;;13.28;74.26
39949;BME280;29070;48.102;-1.652;2023-05-01T06:09:44;101727.97;;;13.28;74.10
39949;BME280;29070;48.102;-1.652;2023-05-01T06:14:44;101727.06;;;13.21;74.14
39949;BME280;29070;48.102;-1.652;2023-05-01T06:19:45;101731.00;;;13.25;74.14
39949;BME280;29070;48.102;-1.652;2023-05-01T06:24:45;101727.97;;;13.28;74.04
39949;BME280;29070;48.102;-1.652;2023-05-01T06:29:46;101743.06;;;13.34;74.38
39949;BME280;29070;48.102;-1.652;2023-05-01T06:34:46;101747.31;;;13.35;74.05
39949;BME280;29070;48.102;-1.652;2023-05-01T06:39:46;101749.34;;;13.33;74.05
39949;BME280;29070;48.102;-1.652;2023-05-01T06:44:47;101756.13;;;13.43;73.93
39949;BME280;29070;48.102;-1.652;2023-05-01T06:49:47;101757.44;;;13.53;73.76
39949;BME280;29070;48.102;-1.652;2023-05-01T06:54:47;101752.16;;;13.53;73.54
39949;BME280;29070;48.102;-1.652;2023-05-01T06:59:48;101759.97;;;13.62;73.28
39949;BME280;29070;48.102;-1.652;2023-05-01T07:04:48;101768.19;;;13.73;73.39
39949;BME280;29070;48.102;-1.652;2023-05-01T07:09:48;101771.28;;;13.84;73.24
39949;BME280;29070;48.102;-1.652;2023-05-01T07:14:50;101758.06;;;13.77;73.01
39949;BME280;29070;48.102;-1.652;2023-05-01T07:19:50;101758.97;;;13.91;73.30
39949;BME280;29070;48.102;-1.652;2023-05-01T07:24:51;101763.88;;;13.94;72.82
39949;BME280;29070;48.102;-1.652;2023-05-01T07:29:54;101771.66;;;14.02;72.75
39949;BME280;29070;48.102;-1.652;2023-05-01T07:34:54;101793.25;;;14.13;72.71
39949;BME280;29070;48.102;-1.652;2023-05-01T07:39:55;101779.09;;;14.20;72.69
39949;BME280;29070;48.102;-1.652;2023-05-01T07:44:57;101792.19;;;14.35;72.48
39949;BME280;29070;48.102;-1.652;2023-05-01T07:49:57;101799.50;;;14.33;71.85
39949;BME280;29070;48.102;-1.652;2023-05-01T07:54:57;101790.25;;;14.51;71.89
39949;BME280;29070;48.102;-1.652;2023-05-01T07:59:58;101779.16;;;14.62;71.63
39949;BME280;29070;48.102;-1.652;2023-05-01T08:04:58;101783.03;;;14.66;71.18
39949;BME280;29070;48.102;-1.652;2023-05-01T08:09:59;101784.91;;;14.72;70.81
39949;BME280;29070;48.102;-1.652;2023-05-01T08:15:00;101785.56;;;14.81;70.54
39949;BME280;29070;48.102;-1.652;2023-05-01T08:20:01;101785.25;;;15.11;70.72
39949;BME280;29070;48.102;-1.652;2023-05-01T08:25:01;101787.72;;;15.12;70.01
39949;BME280;29070;48.102;-1.652;2023-05-01T08:30:01;101778.78;;;15.27;69.72
39949;BME280;29070;48.102;-1.652;2023-05-01T08:35:02;101775.97;;;15.35;68.87
39949;BME280;29070;48.102;-1.652;2023-05-01T08:40:03;101782.88;;;15.22;68.52
39949;BME280;29070;48.102;-1.652;2023-05-01T08:45:08;101782.66;;;15.24;68.50
39949;BME280;29070;48.102;-1.652;2023-05-01T08:50:09;101804.03;;;15.22;68.20
39949;BME280;29070;48.102;-1.652;2023-05-01T08:55:13;101806.28;;;15.25;67.76
39949;BME280;29070;48.102;-1.652;2023-05-01T09:00:18;101809.25;;;15.09;67.59
39949;BME280;29070;48.102;-1.652;2023-05-01T09:05:19;101815.75;;;15.06;67.36
39949;BME280;29070;48.102;-1.652;2023-05-01T09:10:20;101814.38;;;15.17;67.40
39949;BME280;29070;48.102;-1.652;2023-05-01T09:15:20;101804.44;;;15.26;66.77
39949;BME280;29070;48.102;-1.652;2023-05-01T09:20:21;101821.94;;;15.34;66.31
39949;BME280;29070;48.102;-1.652;2023-05-01T09:25:22;101809.34;;;15.42;66.25
39949;BME280;29070;48.102;-1.652;2023-05-01T09:35:30;101809.81;;;15.73;65.56
39949;BME280;29070;48.102;-1.652;2023-05-01T09:40:32;101812.31;;;15.94;64.66
39949;BME280;29070;48.102;-1.652;2023-05-01T09:45:32;101833.09;;;15.97;63.81
39949;BME280;29070;48.102;-1.652;2023-05-01T09:50:34;101834.91;;;16.04;63.83
39949;BME280;29070;48.102;-1.652;2023-05-01T09:55:34;101834.50;;;16.27;63.73
39949;BME280;29070;48.102;-1.652;2023-05-01T10:00:53;101828.75;;;16.50;61.82
39949;BME280;29070;48.102;-1.652;2023-05-01T10:05:54;101832.56;;;16.87;63.28
39949;BME280;29070;48.102;-1.652;2023-05-01T10:11:01;101826.56;;;17.05;61.82
39949;BME280;29070;48.102;-1.652;2023-05-01T10:16:03;101822.56;;;16.89;61.42
39949;BME280;29070;48.102;-1.652;2023-05-01T10:21:06;101828.75;;;17.22;61.91
39949;BME280;29070;48.102;-1.652;2023-05-01T10:26:12;101823.53;;;17.72;61.34
39949;BME280;29070;48.102;-1.652;2023-05-01T10:31:14;101831.63;;;17.90;60.02
39949;BME280;29070;48.102;-1.652;2023-05-01T10:36:21;101822.59;;;17.91;58.18
39949;BME280;29070;48.102;-1.652;2023-05-01T10:46:58;101833.06;;;17.55;58.77
39949;BME280;29070;48.102;-1.652;2023-05-01T10:52:00;101841.44;;;17.51;58.85
39949;BME280;29070;48.102;-1.652;2023-05-01T10:57:02;101835.00;;;17.72;58.90
39949;BME280;29070;48.102;-1.652;2023-05-01T11:02:20;101835.56;;;18.32;58.28
39949;BME280;29070;48.102;-1.652;2023-05-01T11:07:21;101840.88;;;18.50;57.77
39949;BME280;29070;48.102;-1.652;2023-05-01T11:17:45;101828.06;;;17.97;57.04
39949;BME280;29070;48.102;-1.652;2023-05-01T11:22:45;101834.81;;;18.24;57.28
39949;BME280;29070;48.102;-1.652;2023-05-01T11:27:47;101827.22;;;18.65;57.08
39949;BME280;29070;48.102;-1.652;2023-05-01T11:32:49;101820.63;;;19.04;56.28
39949;BME280;29070;48.102;-1.652;2023-05-01T11:37:50;101837.50;;;18.80;55.50
39949;BME280;29070;48.102;-1.652;2023-05-01T11:42:58;101820.72;;;18.61;55.22
39949;BME280;29070;48.102;-1.652;2023-05-01T11:48:00;101821.41;;;18.75;55.45
39949;BME280;29070;48.102;-1.652;2023-05-01T11:53:03;101803.88;;;19.04;55.17
39949;BME280;29070;48.102;-1.652;2023-05-01T11:58:07;101823.00;;;19.13;53.80
39949;BME280;29070;48.102;-1.652;2023-05-01T12:03:11;101811.94;;;18.79;51.65
39949;BME280;29070;48.102;-1.652;2023-05-01T12:08:14;101813.53;;;19.17;53.32
39949;BME280;29070;48.102;-1.652;2023-05-01T12:13:17;101816.25;;;19.40;53.08
39949;BME280;29070;48.102;-1.652;2023-05-01T12:18:19;101814.88;;;19.08;52.47
39949;BME280;29070;48.102;-1.652;2023-05-01T12:23:33;101802.44;;;19.20;50.54
39949;BME280;29070;48.102;-1.652;2023-05-01T12:28:33;101808.78;;;19.19;51.32
39949;BME280;29070;48.102;-1.652;2023-05-01T12:33:34;101811.28;;;19.32;51.81
39949;BME280;29070;48.102;-1.652;2023-05-01T12:38:34;101815.56;;;19.03;51.57
39949;BME280;29070;48.102;-1.652;2023-05-01T12:43:36;101806.31;;;19.05;51.69
39949;BME280;29070;48.102;-1.652;2023-05-01T12:48:38;101795.66;;;19.36;50.63
39949;BME280;29070;48.102;-1.652;2023-05-01T12:53:42;101779.91;;;19.76;49.90
39949;BME280;29070;48.102;-1.652;2023-05-01T12:58:43;101807.00;;;20.21;50.32
39949;BME280;29070;48.102;-1.652;2023-05-01T13:03:43;101802.03;;;20.24;49.85
39949;BME280;29070;48.102;-1.652;2023-05-01T13:08:43;101800.84;;;20.55;49.83
39949;BME280;29070;48.102;-1.652;2023-05-01T13:13:45;101803.81;;;20.83;48.94
39949;BME280;29070;48.102;-1.652;2023-05-01T13:18:48;101804.09;;;20.46;49.00
39949;BME280;29070;48.102;-1.652;2023-05-01T13:23:59;101807.47;;;20.65;48.23
39949;BME280;29070;48.102;-1.652;2023-05-01T13:29:02;101812.34;;;20.68;48.82
39949;BME280;29070;48.102;-1.652;2023-05-01T13:34:03;101819.13;;;20.87;48.22
39949;BME280;29070;48.102;-1.652;2023-05-01T13:39:03;101818.59;;;20.62;47.88
39949;BME280;29070;48.102;-1.652;2023-05-01T13:44:05;101821.38;;;20.43;47.89
39949;BME280;29070;48.102;-1.652;2023-05-01T13:49:05;101823.47;;;20.65;47.82
39949;BME280;29070;48.102;-1.652;2023-05-01T13:54:10;101815.59;;;20.46;48.19
39949;BME280;29070;48.102;-1.652;2023-05-01T13:59:10;101814.97;;;20.56;48.24
39949;BME280;29070;48.102;-1.652;2023-05-01T14:04:14;101802.34;;;20.75;47.81
39949;BME280;29070;48.102;-1.652;2023-05-01T14:09:16;101816.38;;;20.70;47.72
39949;BME280;29070;48.102;-1.652;2023-05-01T14:14:18;101809.72;;;21.13;47.47
39949;BME280;29070;48.102;-1.652;2023-05-01T14:19:18;101804.91;;;21.27;47.48
39949;BME280;29070;48.102;-1.652;2023-05-01T14:24:19;101815.41;;;21.17;47.54
39949;BME280;29070;48.102;-1.652;2023-05-01T14:29:25;101788.94;;;20.87;47.36
39949;BME280;29070;48.102;-1.652;2023-05-01T14:34:27;101802.59;;;21.02;47.35
39949;BME280;29070;48.102;-1.652;2023-05-01T14:39:31;101788.81;;;20.93;46.83
39949;BME280;29070;48.102;-1.652;2023-05-01T14:44:31;101784.59;;;20.98;47.17
39949;BME280;29070;48.102;-1.652;2023-05-01T14:49:32;101783.25;;;21.12;47.22
39949;BME280;29070;48.102;-1.652;2023-05-01T14:54:34;101778.38;;;21.38;47.32
39949;BME280;29070;48.102;-1.652;2023-05-01T14:59:43;101772.88;;;21.44;47.13
39949;BME280;29070;48.102;-1.652;2023-05-01T15:04:43;101772.56;;;21.75;46.92
39949;BME280;29070;48.102;-1.652;2023-05-01T15:09:44;101779.34;;;21.99;46.46
39949;BME280;29070;48.102;-1.652;2023-05-01T15:14:45;101776.97;;;22.20;46.38
39949;BME280;29070;48.102;-1.652;2023-05-01T15:19:45;101775.97;;;21.87;45.91
39949;BME280;29070;48.102;-1.652;2023-05-01T15:24:46;101779.66;;;22.20;46.09
39949;BME280;29070;48.102;-1.652;2023-05-01T15:29:46;101783.59;;;21.95;46.22
39949;BME280;29070;48.102;-1.652;2023-05-01T15:34:47;101775.19;;;21.69;45.85
39949;BME280;29070;48.102;-1.652;2023-05-01T15:39:54;101778.41;;;21.55;45.90
39949;BME280;29070;48.102;-1.652;2023-05-01T15:44:54;101765.63;;;21.74;45.75
39949;BME280;29070;48.102;-1.652;2023-05-01T15:49:54;101779.22;;;21.55;45.85
39949;BME280;29070;48.102;-1.652;2023-05-01T15:54:55;101777.34;;;21.73;45.85
39949;BME280;29070;48.102;-1.652;2023-05-01T15:59:55;101775.50;;;21.56;45.68
39949;BME280;29070;48.102;-1.652;2023-05-01T16:04:55;101776.44;;;21.33;45.87
39949;BME280;29070;48.102;-1.652;2023-05-01T16:09:56;101780.31;;;21.25;45.76
39949;BME280;29070;48.102;-1.652;2023-05-01T16:14:59;101787.84;;;21.28;46.22
39949;BME280;29070;48.102;-1.652;2023-05-01T16:20:00;101787.38;;;21.03;46.62
39949;BME280;29070;48.102;-1.652;2023-05-01T16:25:02;101783.81;;;20.97;46.67
39949;BME280;29070;48.102;-1.652;2023-05-01T16:30:04;101783.19;;;21.07;46.56
39949;BME280;29070;48.102;-1.652;2023-05-01T16:35:05;101798.47;;;20.83;46.80
39949;BME280;29070;48.102;-1.652;2023-05-01T16:40:06;101804.22;;;20.63;47.30
39949;BME280;29070;48.102;-1.652;2023-05-01T16:45:11;101813.50;;;20.48;47.57
39949;BME280;29070;48.102;-1.652;2023-05-01T16:50:11;101822.44;;;20.30;47.49
39949;BME280;29070;48.102;-1.652;2023-05-01T16:55:12;101821.41;;;20.19;47.88
39949;BME280;29070;48.102;-1.652;2023-05-01T17:00:13;101819.75;;;20.42;47.92
39949;BME280;29070;48.102;-1.652;2023-05-01T17:05:14;101819.31;;;20.22;48.17
39949;BME280;29070;48.102;-1.652;2023-05-01T17:10:15;101821.16;;;20.09;48.22
39949;BME280;29070;48.102;-1.652;2023-05-01T17:15:17;101821.16;;;19.97;48.45
39949;BME280;29070;48.102;-1.652;2023-05-01T17:20:17;101822.53;;;19.76;48.49
39949;BME280;29070;48.102;-1.652;2023-05-01T17:25:17;101825.34;;;19.63;48.24
39949;BME280;29070;48.102;-1.652;2023-05-01T17:30:18;101818.03;;;19.47;48.79
39949;BME280;29070;48.102;-1.652;2023-05-01T17:35:18;101825.88;;;19.41;48.80
39949;BME280;29070;48.102;-1.652;2023-05-01T17:40:19;101814.28;;;19.36;49.27
39949;BME280;29070;48.102;-1.652;2023-05-01T17:45:22;101825.00;;;19.17;49.10
39949;BME280;29070;48.102;-1.652;2023-05-01T17:50:22;101832.34;;;19.03;49.35
39949;BME280;29070;48.102;-1.652;2023-05-01T17:55:23;101836.63;;;18.86;49.38
39949;BME280;29070;48.102;-1.652;2023-05-01T18:00:23;101835.94;;;18.72;49.56
39949;BME280;29070;48.102;-1.652;2023-05-01T18:05:24;101832.38;;;18.60;49.56
39949;BME280;29070;48.102;-1.652;2023-05-01T18:10:25;101829.06;;;18.46;50.17
39949;BME280;29070;48.102;-1.652;2023-05-01T18:15:30;101832.06;;;18.31;50.02
39949;BME280;29070;48.102;-1.652;2023-05-01T18:20:30;101836.25;;;18.20;50.25
39949;BME280;29070;48.102;-1.652;2023-05-01T18:25:30;101843.75;;;18.05;50.47
39949;BME280;29070;48.102;-1.652;2023-05-01T18:30:31;101847.97;;;17.87;50.55
39949;BME280;29070;48.102;-1.652;2023-05-01T18:35:32;101859.09;;;17.71;50.87
39949;BME280;29070;48.102;-1.652;2023-05-01T18:40:32;101857.09;;;17.60;50.99
39949;BME280;29070;48.102;-1.652;2023-05-01T18:45:33;101873.53;;;17.43;51.20
39949;BME280;29070;48.102;-1.652;2023-05-01T18:50:33;101867.91;;;17.26;51.04
39949;BME280;29070;48.102;-1.652;2023-05-01T18:55:33;101881.03;;;17.14;51.26
39949;BME280;29070;48.102;-1.652;2023-05-01T19:00:34;101884.75;;;17.00;51.72
39949;BME280;29070;48.102;-1.652;2023-05-01T19:05:34;101888.47;;;16.86;51.61
39949;BME280;29070;48.102;-1.652;2023-05-01T19:10:35;101890.09;;;16.67;51.68
39949;BME280;29070;48.102;-1.652;2023-05-01T19:15:36;101891.97;;;16.53;52.07
39949;BME280;29070;48.102;-1.652;2023-05-01T19:20:37;101912.34;;;16.39;52.40
39949;BME280;29070;48.102;-1.652;2023-05-01T19:25:37;101908.06;;;16.18;52.71
39949;BME280;29070;48.102;-1.652;2023-05-01T19:30:37;101917.22;;;16.09;52.47
39949;BME280;29070;48.102;-1.652;2023-05-01T19:35:38;101933.31;;;15.94;52.67
39949;BME280;29070;48.102;-1.652;2023-05-01T19:40:38;101943.63;;;15.75;53.15
39949;BME280;29070;48.102;-1.652;2023-05-01T19:45:42;101943.56;;;15.62;53.47
39949;BME280;29070;48.102;-1.652;2023-05-01T19:50:42;101953.50;;;15.53;53.56
39949;BME280;29070;48.102;-1.652;2023-05-01T19:55:49;101957.47;;;15.36;53.89
39949;BME280;29070;48.102;-1.652;2023-05-01T20:00:50;101966.41;;;15.28;54.06
39949;BME280;29070;48.102;-1.652;2023-05-01T20:05:50;101978.69;;;15.07;54.64
39949;BME280;29070;48.102;-1.652;2023-05-01T20:10:50;101983.94;;;15.01;54.57
39949;BME280;29070;48.102;-1.652;2023-05-01T20:15:51;101985.06;;;14.85;54.67
39949;BME280;29070;48.102;-1.652;2023-05-01T20:20:51;101994.31;;;14.74;54.87
39949;BME280;29070;48.102;-1.652;2023-05-01T20:25:52;102000.69;;;14.58;55.38
39949;BME280;29070;48.102;-1.652;2023-05-01T20:30:52;102007.53;;;14.53;55.34
39949;BME280;29070;48.102;-1.652;2023-05-01T20:35:53;102007.19;;;14.41;55.60
39949;BME280;29070;48.102;-1.652;2023-05-01T20:40:53;102011.59;;;14.34;55.68
39949;BME280;29070;48.102;-1.652;2023-05-01T20:45:53;102012.53;;;14.26;55.90
39949;BME280;29070;48.102;-1.652;2023-05-01T20:50:54;102014.22;;;14.12;56.13
39949;BME280;29070;48.102;-1.652;2023-05-01T20:55:54;102014.97;;;14.06;56.34
39949;BME280;29070;48.102;-1.652;2023-05-01T21:00:54;102020.81;;;14.01;56.48
39949;BME280;29070;48.102;-1.652;2023-05-01T21:05:58;102007.91;;;13.91;56.91
39949;BME280;29070;48.102;-1.652;2023-05-01T21:11:00;102025.03;;;13.81;57.09
39949;BME280;29070;48.102;-1.652;2023-05-01T21:16:01;102024.22;;;13.65;57.38
39949;BME280;29070;48.102;-1.652;2023-05-01T21:21:01;102039.59;;;13.62;57.45
39949;BME280;29070;48.102;-1.652;2023-05-01T21:26:02;102037.31;;;13.44;57.88
39949;BME280;29070;48.102;-1.652;2023-05-01T21:31:02;102033.22;;;13.41;57.87
39949;BME280;29070;48.102;-1.652;2023-05-01T21:36:03;102027.56;;;13.29;58.47
39949;BME280;29070;48.102;-1.652;2023-05-01T21:41:03;102029.09;;;13.24;58.47
39949;BME280;29070;48.102;-1.652;2023-05-01T21:46:05;102022.06;;;13.16;58.73
39949;BME280;29070;48.102;-1.652;2023-05-01T21:51:05;102030.06;;;13.08;59.11
39949;BME280;29070;48.102;-1.652;2023-05-01T21:56:06;102033.22;;;13.03;59.07
39949;BME280;29070;48.102;-1.652;2023-05-01T22:01:06;102032.66;;;12.93;59.60
39949;BME280;29070;48.102;-1.652;2023-05-01T22:06:08;102039.94;;;12.91;59.78
39949;BME280;29070;48.102;-1.652;2023-05-01T22:11:08;102048.56;;;12.85;59.93
39949;BME280;29070;48.102;-1.652;2023-05-01T22:16:09;102055.34;;;12.79;60.31
39949;BME280;29070;48.102;-1.652;2023-05-01T22:21:11;102045.59;;;12.65;60.64
39949;BME280;29070;48.102;-1.652;2023-05-01T22:26:11;102034.56;;;12.61;60.81
39949;BME280;29070;48.102;-1.652;2023-05-01T22:31:12;102034.28;;;12.56;61.14
39949;BME280;29070;48.102;-1.652;2023-05-01T22:36:12;102047.31;;;12.49;61.33
39949;BME280;29070;48.102;-1.652;2023-05-01T22:41:13;102050.47;;;12.45;61.35
39949;BME280;29070;48.102;-1.652;2023-05-01T22:46:14;102046.09;;;12.37;61.76
39949;BME280;29070;48.102;-1.652;2023-05-01T22:51:14;102057.78;;;12.34;62.08
39949;BME280;29070;48.102;-1.652;2023-05-01T22:56:15;102051.56;;;12.27;62.22
39949;BME280;29070;48.102;-1.652;2023-05-01T23:01:15;102053.09;;;12.22;62.48
39949;BME280;29070;48.102;-1.652;2023-05-01T23:06:17;102049.69;;;12.13;62.64
39949;BME280;29070;48.102;-1.652;2023-05-01T23:11:18;102049.53;;;12.06;63.23
39949;BME280;29070;48.102;-1.652;2023-05-01T23:16:20;102060.72;;;12.00;63.42
39949;BME280;29070;48.102;-1.652;2023-05-01T23:21:20;102055.84;;;11.97;63.48
39949;BME280;29070;48.102;-1.652;2023-05-01T23:26:24;102054.00;;;11.89;63.89
39949;BME280;29070;48.102;-1.652;2023-05-01T23:31:26;102048.47;;;11.84;64.18
39949;BME280;29070;48.102;-1.652;2023-05-01T23:36:26;102061.94;;;11.81;64.32
39949;BME280;29070;48.102;-1.652;2023-05-01T23:41:28;102069.03;;;11.72;64.47
39949;BME280;29070;48.102;-1.652;2023-05-01T23:46:28;102062.66;;;11.67;64.67
39949;BME280;29070;48.102;-1.652;2023-05-01T23:51:30;102066.47;;;11.56;64.90
39949;BME280;29070;48.102;-1.652;2023-05-01T23:56:30;102066.47;;;11.48;64.84
